CW4548 Weather Reports


time (UTC)temp
C
wind
direction
speed
KPH
gust
KPH
rain 1hr
cm
rain 24hr
cm
rain mn
cm
humidity
%
barometer
mb
20190819164811 22 215 9.7 9.7 0.00 0.00 0.00 97 1014.5
20190819163811 22 235 14.5 14.5 0.00 0.00 0.00 97 1014.5
20190819161811 22 225 19.3 19.3 0.00 0.00 0.00 97 1014.5
20190819154814 22 245 16.1 16.1 0.00 0.00 0.00 97 1014.5
20190819152814 23 230 17.7 17.7 0.00 0.00 0.00 97 1014.5
20190819151814 23 265 19.3 19.3 0.00 0.00 0.00 97 1014.5
20190819150814 23 205 14.5 16.1 0.00 0.00 0.00 97 1014.5
20190819145814 23 270 19.3 19.3 0.00 0.00 0.00 97 1014.5
20190819144814 23 245 17.7 17.7 0.00 0.00 0.00 97 1014.5
20190819143814 23 210 19.3 19.3 0.00 0.00 0.00 97 1014.5
20190819140814 24 210 17.7 17.7 0.00 0.00 0.00 97 1014.5
20190819135814 24 205 22.5 22.5 0.00 0.00 0.00 97 1014.5
20190819134813 24 235 11.3 11.3 0.00 0.00 0.00 97 1014.5
20190819131813 24 230 22.5 22.5 0.00 0.00 0.00 97 1013.5
20190819130813 23 245 17.7 17.7 0.00 0.00 0.00 97 1013.5
20190819124813 23 215 20.9 20.9 0.00 0.00 0.00 97 1013.5
20190819121813 22 225 16.1 22.5 0.00 0.00 0.00 97 1013.5
20190819114813 21 250 19.3 19.3 0.00 0.00 0.00 97 1013.5
20190819110812 21 265 16.1 16.1 0.00 0.00 0.00 97 1012.5
20190819105812 22 240 19.3 19.3 0.00 0.00 0.00 97 1012.5
20190819104812 21 245 20.9 20.9 0.00 0.00 0.00 97 1012.5
20190819101812 20 185 14.5 22.5 0.00 0.00 0.00 97 1012.5
20190819094812 19 195 19.3 19.3 0.00 0.00 0.00 97 1012.5
20190819092812 19 225 16.1 16.1 0.00 0.00 0.00 97 1012.5
20190819085811 18 200 19.3 19.3 0.00 0.00 0.00 97 1012.5
20190819084811 18 190 22.5 22.5 0.00 0.00 0.00 97 1012.5
20190819082811 19 235 9.7 9.7 0.00 0.00 0.00 97 1011.5
20190819081811 18 255 19.3 19.3 0.00 0.00 0.00 97 1011.5
20190819074811 17 250 16.1 16.1 0.00 0.00 0.00 97 1011.6
20190819073810 17 240 17.7 17.7 0.00 0.00 0.00 97 1011.6
20190819065810 17 210 16.1 16.1 0.00 0.00 0.00 97 1011.6
20190819060815 16 205 16.1 16.1 0.00 0.00 0.00 97 1011.6
20190819055814 16 205 8.0 8.0 0.00 0.00 0.00 97 1010.6
20190819054814 15 180 9.7 9.7 0.00 0.00 0.00 97 1010.6
20190819052814 15 155 6.4 6.4 0.00 0.00 0.00 97 1010.6
20190819050814 15 170 0.0 0.0 0.00 0.00 0.00 97 1010.6
20190819045814 15 185 1.6 4.8 0.00 0.00 0.00 97 1010.6
20190819043814 15 190 6.4 6.4 0.00 0.00 0.00 97 1010.6
20190819041814 15 165 6.4 6.4 0.00 0.00 0.00 97 1010.6
20190819040814 14 110 0.0 0.0 0.00 0.00 0.00 97 1010.6
20190819035813 14 110 0.0 0.0 0.00 0.00 0.00 97 1010.6
20190819034813 14 110 0.0 0.0 0.00 0.00 0.00 97 1009.6
20190819032813 14 110 0.0 0.0 0.00 0.00 0.00 97 1009.6
20190819031813 14 110 0.0 0.0 0.00 0.00 0.00 97 1009.6
20190819030813 14 105 0.0 0.0 0.00 0.00 0.00 97 1009.6
20190819023813 14 110 3.2 3.2 0.00 0.00 0.00 97 1009.6
20190819022813 14 110 4.8 4.8 0.00 0.00 0.00 97 1009.6
20190819015813 14 110 0.0 0.0 0.00 0.00 0.00 97 1009.6
20190819013812 14 110 8.0 8.0 0.00 0.00 0.00 97 1009.6
20190819011812 14 175 1.6 1.6 0.00 0.00 0.00 97 1009.6
20190819010812 13 175 0.0 0.0 0.00 0.00 0.00 97 1009.6
20190819005812 13 180 0.0 0.0 0.00 0.00 0.00 97 1009.6
20190819002812 13 175 0.0 0.0 0.00 0.00 0.00 97 1009.6
20190819001812 13 175 0.0 0.0 0.00 0.00 0.00 97 1009.6
20190819000812 14 180 0.0 0.0 0.00 0.00 0.00 97 1008.6
20190818235811 14 175 0.0 0.0 0.00 0.00 0.00 97 1008.6
20190818234811 14 175 0.0 0.0 0.00 0.00 0.00 97 1008.6
20190818233811 15 175 0.0 0.0 0.00 0.00 0.00 97 1008.6
20190818232811 15 175 0.0 0.0 0.00 0.00 0.00 97 1008.6
20190818231812 15 175 0.0 0.0 0.00 0.00 0.00 97 1008.6
20190818230811 15 180 0.0 0.0 0.00 0.00 0.00 97 1008.6
20190818224811 15 185 0.0 0.0 0.00 0.00 0.00 97 1008.6
20190818223811 15 185 0.0 0.0 0.00 0.00 0.00 97 1008.6
20190818221811 16 185 0.0 0.0 0.00 0.00 0.00 97 1008.6
20190818220811 16 185 3.2 3.2 0.00 0.00 0.00 97 1007.6
20190818213811 16 170 0.0 0.0 0.00 0.28 0.28 97 1007.6
20190818211811 16 170 0.0 0.0 0.00 0.28 0.28 97 1007.6
20190818210810 16 170 0.0 0.0 0.00 0.28 0.28 97 1007.6
20190818204810 16 180 0.0 0.0 0.00 0.28 0.28 97 1007.6
20190818203810 16 180 0.0 0.0 0.00 0.28 0.28 97 1007.6
20190818201810 16 180 1.6 1.6 0.00 0.28 0.28 97 1007.6
20190818195810 16 220 0.0 0.0 0.00 0.28 0.28 97 1006.6
20190818194810 16 220 0.0 0.0 0.00 0.28 0.28 97 1006.6
20190818193810 16 220 0.0 0.0 0.00 0.28 0.28 97 1006.6
20190818190813 16 225 0.0 0.0 0.00 0.28 0.28 97 1006.6
20190818185813 17 225 0.0 0.0 0.00 0.28 0.28 97 1005.5
20190818184813 17 225 0.0 0.0 0.00 0.28 0.28 97 1005.5
20190818181813 17 205 3.2 3.2 0.00 0.28 0.28 97 1005.5
20190818174812 18 270 6.4 6.4 0.00 0.28 0.28 97 1005.5
20190818172812 18 275 11.3 11.3 0.00 0.28 0.28 97 1004.5